sensor_id;sensor_type;location;lat;lon;timestamp;P1;durP1;ratioP1;P2;durP2;ratioP2
57893;SDS011;43710;47.460;19.034;2023-03-07T04:58:02;43.17;;;26.05;;
57893;SDS011;43710;47.460;19.034;2023-03-07T05:01:04;44.75;;;26.58;;
57893;SDS011;43710;47.460;19.034;2023-03-07T05:04:07;40.40;;;26.30;;
57893;SDS011;43710;47.460;19.034;2023-03-07T05:07:09;48.72;;;27.55;;
57893;SDS011;43710;47.460;19.034;2023-03-07T05:10:11;40.72;;;25.95;;
57893;SDS011;43710;47.460;19.034;2023-03-07T05:13:14;41.33;;;26.77;;
57893;SDS011;43710;47.460;19.034;2023-03-07T05:16:17;38.65;;;25.73;;
57893;SDS011;43710;47.460;19.034;2023-03-07T05:19:20;41.72;;;27.75;;
57893;SDS011;43710;47.460;19.034;2023-03-07T05:22:23;39.85;;;25.95;;
57893;SDS011;43710;47.460;19.034;2023-03-07T05:25:25;40.35;;;26.48;;
57893;SDS011;43710;47.460;19.034;2023-03-07T05:28:27;41.95;;;27.67;;
57893;SDS011;43710;47.460;19.034;2023-03-07T05:31:30;39.42;;;26.10;;
57893;SDS011;43710;47.460;19.034;2023-03-07T05:34:33;40.83;;;28.00;;
57893;SDS011;43710;47.460;19.034;2023-03-07T05:37:35;43.87;;;26.90;;
57893;SDS011;43710;47.460;19.034;2023-03-07T05:40:39;37.75;;;25.67;;
57893;SDS011;43710;47.460;19.034;2023-03-07T05:43:43;43.92;;;28.60;;
57893;SDS011;43710;47.460;19.034;2023-03-07T05:46:45;42.40;;;28.17;;
57893;SDS011;43710;47.460;19.034;2023-03-07T05:49:48;39.33;;;27.35;;
57893;SDS011;43710;47.460;19.034;2023-03-07T05:52:50;49.00;;;29.05;;
57893;SDS011;43710;47.460;19.034;2023-03-07T05:55:54;39.58;;;27.92;;
57893;SDS011;43710;47.460;19.034;2023-03-07T05:58:57;40.17;;;26.23;;
57893;SDS011;43710;47.460;19.034;2023-03-07T06:01:59;45.22;;;29.30;;
57893;SDS011;43710;47.460;19.034;2023-03-07T06:05:02;43.05;;;28.05;;
57893;SDS011;43710;47.460;19.034;2023-03-07T06:08:04;46.15;;;29.37;;
57893;SDS011;43710;47.460;19.034;2023-03-07T06:11:08;45.65;;;28.02;;
57893;SDS011;43710;47.460;19.034;2023-03-07T06:14:11;45.83;;;29.23;;
57893;SDS011;43710;47.460;19.034;2023-03-07T06:17:14;43.80;;;28.70;;
57893;SDS011;43710;47.460;19.034;2023-03-07T06:20:16;46.97;;;29.90;;
57893;SDS011;43710;47.460;19.034;2023-03-07T06:23:22;45.05;;;30.42;;
57893;SDS011;43710;47.460;19.034;2023-03-07T06:26:24;45.22;;;30.75;;
57893;SDS011;43710;47.460;19.034;2023-03-07T06:29:27;40.12;;;27.52;;
57893;SDS011;43710;47.460;19.034;2023-03-07T06:32:29;44.15;;;29.20;;
57893;SDS011;43710;47.460;19.034;2023-03-07T06:35:33;46.15;;;29.33;;
57893;SDS011;43710;47.460;19.034;2023-03-07T06:38:39;43.00;;;29.17;;
57893;SDS011;43710;47.460;19.034;2023-03-07T06:41:42;41.92;;;28.75;;
57893;SDS011;43710;47.460;19.034;2023-03-07T06:44:44;46.15;;;30.00;;
57893;SDS011;43710;47.460;19.034;2023-03-07T06:47:47;46.75;;;28.87;;
57893;SDS011;43710;47.460;19.034;2023-03-07T06:50:49;43.80;;;28.90;;
57893;SDS011;43710;47.460;19.034;2023-03-07T06:53:52;42.45;;;28.75;;
57893;SDS011;43710;47.460;19.034;2023-03-07T06:56:55;44.63;;;28.75;;
57893;SDS011;43710;47.460;19.034;2023-03-07T06:59:57;47.53;;;30.40;;
57893;SDS011;43710;47.460;19.034;2023-03-07T07:03:03;45.90;;;28.95;;
57893;SDS011;43710;47.460;19.034;2023-03-07T07:06:05;49.30;;;29.80;;
57893;SDS011;43710;47.460;19.034;2023-03-07T07:09:09;48.95;;;31.33;;
57893;SDS011;43710;47.460;19.034;2023-03-07T07:12:13;47.60;;;29.53;;
57893;SDS011;43710;47.460;19.034;2023-03-07T07:15:16;56.70;;;31.42;;
57893;SDS011;43710;47.460;19.034;2023-03-07T07:18:18;47.88;;;29.15;;
57893;SDS011;43710;47.460;19.034;2023-03-07T07:21:21;43.63;;;29.90;;
57893;SDS011;43710;47.460;19.034;2023-03-07T07:24:23;45.85;;;30.65;;
57893;SDS011;43710;47.460;19.034;2023-03-07T07:27:26;46.42;;;31.65;;
57893;SDS011;43710;47.460;19.034;2023-03-07T07:30:30;57.35;;;32.47;;
57893;SDS011;43710;47.460;19.034;2023-03-07T07:33:32;43.92;;;29.02;;
57893;SDS011;43710;47.460;19.034;2023-03-07T07:36:35;45.03;;;29.58;;
57893;SDS011;43710;47.460;19.034;2023-03-07T07:39:37;43.65;;;27.85;;
57893;SDS011;43710;47.460;19.034;2023-03-07T07:42:48;39.15;;;25.15;;
57893;SDS011;43710;47.460;19.034;2023-03-07T07:46:01;35.97;;;23.60;;
57893;SDS011;43710;47.460;19.034;2023-03-07T07:52:08;32.42;;;22.08;;
57893;SDS011;43710;47.460;19.034;2023-03-07T07:55:10;31.73;;;22.75;;
57893;SDS011;43710;47.460;19.034;2023-03-07T07:58:15;37.47;;;23.60;;
57893;SDS011;43710;47.460;19.034;2023-03-07T08:01:20;34.20;;;23.52;;
57893;SDS011;43710;47.460;19.034;2023-03-07T08:04:24;35.60;;;23.52;;
57893;SDS011;43710;47.460;19.034;2023-03-07T08:07:26;38.97;;;25.17;;
57893;SDS011;43710;47.460;19.034;2023-03-07T08:10:29;38.63;;;24.55;;
57893;SDS011;43710;47.460;19.034;2023-03-07T08:13:31;41.75;;;27.02;;
57893;SDS011;43710;47.460;19.034;2023-03-07T08:16:34;40.17;;;25.33;;
57893;SDS011;43710;47.460;19.034;2023-03-07T08:19:37;41.70;;;27.00;;
57893;SDS011;43710;47.460;19.034;2023-03-07T08:22:40;39.60;;;26.65;;
57893;SDS011;43710;47.460;19.034;2023-03-07T08:25:44;44.17;;;28.35;;
57893;SDS011;43710;47.460;19.034;2023-03-07T08:28:46;36.65;;;26.73;;
57893;SDS011;43710;47.460;19.034;2023-03-07T08:31:49;49.75;;;28.35;;
57893;SDS011;43710;47.460;19.034;2023-03-07T08:34:52;44.70;;;27.13;;
57893;SDS011;43710;47.460;19.034;2023-03-07T08:37:55;48.87;;;26.83;;
57893;SDS011;43710;47.460;19.034;2023-03-07T08:41:01;44.83;;;25.13;;
57893;SDS011;43710;47.460;19.034;2023-03-07T08:44:05;43.03;;;25.48;;
57893;SDS011;43710;47.460;19.034;2023-03-07T08:47:07;45.47;;;26.08;;
57893;SDS011;43710;47.460;19.034;2023-03-07T08:50:12;36.17;;;24.10;;
57893;SDS011;43710;47.460;19.034;2023-03-07T08:53:15;38.70;;;23.15;;
57893;SDS011;43710;47.460;19.034;2023-03-07T08:56:19;33.15;;;23.20;;
57893;SDS011;43710;47.460;19.034;2023-03-07T08:59:21;35.75;;;22.75;;
57893;SDS011;43710;47.460;19.034;2023-03-07T09:02:23;34.05;;;21.58;;
57893;SDS011;43710;47.460;19.034;2023-03-07T09:05:27;28.45;;;19.17;;
57893;SDS011;43710;47.460;19.034;2023-03-07T09:08:29;24.23;;;16.25;;
57893;SDS011;43710;47.460;19.034;2023-03-07T09:11:32;27.37;;;16.98;;
57893;SDS011;43710;47.460;19.034;2023-03-07T09:14:34;25.62;;;16.95;;
57893;SDS011;43710;47.460;19.034;2023-03-07T09:17:37;27.48;;;17.20;;
57893;SDS011;43710;47.460;19.034;2023-03-07T09:20:39;34.28;;;15.40;;
57893;SDS011;43710;47.460;19.034;2023-03-07T09:23:43;23.95;;;15.38;;
57893;SDS011;43710;47.460;19.034;2023-03-07T09:26:45;23.12;;;14.65;;
57893;SDS011;43710;47.460;19.034;2023-03-07T09:29:48;26.33;;;15.35;;
57893;SDS011;43710;47.460;19.034;2023-03-07T09:32:50;25.45;;;15.55;;
57893;SDS011;43710;47.460;19.034;2023-03-07T09:35:53;20.88;;;13.77;;
57893;SDS011;43710;47.460;19.034;2023-03-07T09:38:55;23.75;;;15.10;;
57893;SDS011;43710;47.460;19.034;2023-03-07T09:42:10;26.35;;;15.77;;
57893;SDS011;43710;47.460;19.034;2023-03-07T09:48:50;21.12;;;14.85;;
57893;SDS011;43710;47.460;19.034;2023-03-07T09:52:18;21.87;;;13.80;;
57893;SDS011;43710;47.460;19.034;2023-03-07T09:55:22;22.90;;;15.18;;
57893;SDS011;43710;47.460;19.034;2023-03-07T09:58:26;24.70;;;14.40;;
57893;SDS011;43710;47.460;19.034;2023-03-07T10:01:29;22.00;;;14.02;;
57893;SDS011;43710;47.460;19.034;2023-03-07T10:05:21;19.27;;;13.50;;
57893;SDS011;43710;47.460;19.034;2023-03-07T10:08:18;20.12;;;14.02;;
57893;SDS011;43710;47.460;19.034;2023-03-07T10:15:04;19.45;;;13.18;;
57893;SDS011;43710;47.460;19.034;2023-03-07T10:18:40;18.23;;;13.00;;
57893;SDS011;43710;47.460;19.034;2023-03-07T10:25:33;24.58;;;12.15;;
57893;SDS011;43710;47.460;19.034;2023-03-07T10:28:41;23.87;;;11.18;;
57893;SDS011;43710;47.460;19.034;2023-03-07T10:31:47;17.65;;;10.85;;
57893;SDS011;43710;47.460;19.034;2023-03-07T10:38:17;17.15;;;10.10;;
57893;SDS011;43710;47.460;19.034;2023-03-07T10:41:28;18.17;;;10.18;;
57893;SDS011;43710;47.460;19.034;2023-03-07T10:44:32;17.48;;;10.40;;
57893;SDS011;43710;47.460;19.034;2023-03-07T10:47:35;16.40;;;10.18;;
57893;SDS011;43710;47.460;19.034;2023-03-07T10:53:48;15.35;;;10.10;;
57893;SDS011;43710;47.460;19.034;2023-03-07T10:57:08;17.33;;;11.48;;
57893;SDS011;43710;47.460;19.034;2023-03-07T11:00:13;16.30;;;11.30;;
57893;SDS011;43710;47.460;19.034;2023-03-07T11:03:30;15.32;;;10.60;;
57893;SDS011;43710;47.460;19.034;2023-03-07T11:06:53;18.02;;;12.82;;
57893;SDS011;43710;47.460;19.034;2023-03-07T11:09:57;18.02;;;12.13;;
57893;SDS011;43710;47.460;19.034;2023-03-07T11:13:15;18.25;;;12.23;;
57893;SDS011;43710;47.460;19.034;2023-03-07T11:16:20;18.60;;;13.13;;
57893;SDS011;43710;47.460;19.034;2023-03-07T11:19:40;18.70;;;13.35;;
57893;SDS011;43710;47.460;19.034;2023-03-07T11:22:47;22.23;;;14.68;;
57893;SDS011;43710;47.460;19.034;2023-03-07T11:25:51;22.67;;;15.80;;
57893;SDS011;43710;47.460;19.034;2023-03-07T11:29:05;20.88;;;15.05;;
57893;SDS011;43710;47.460;19.034;2023-03-07T11:32:19;24.45;;;15.95;;
57893;SDS011;43710;47.460;19.034;2023-03-07T11:35:28;23.10;;;15.18;;
57893;SDS011;43710;47.460;19.034;2023-03-07T11:42:03;23.87;;;16.27;;
57893;SDS011;43710;47.460;19.034;2023-03-07T11:54:54;22.25;;;14.15;;
57893;SDS011;43710;47.460;19.034;2023-03-07T12:08:36;20.27;;;12.68;;
57893;SDS011;43710;47.460;19.034;2023-03-07T12:23:06;19.87;;;12.40;;
57893;SDS011;43710;47.460;19.034;2023-03-07T12:26:33;21.83;;;12.37;;
57893;SDS011;43710;47.460;19.034;2023-03-07T12:29:45;18.87;;;11.18;;
57893;SDS011;43710;47.460;19.034;2023-03-07T12:32:52;17.20;;;11.25;;
57893;SDS011;43710;47.460;19.034;2023-03-07T12:36:00;15.38;;;10.13;;
57893;SDS011;43710;47.460;19.034;2023-03-07T12:39:24;18.33;;;11.35;;
57893;SDS011;43710;47.460;19.034;2023-03-07T12:42:43;21.20;;;10.75;;
57893;SDS011;43710;47.460;19.034;2023-03-07T12:49:20;15.75;;;9.52;;
57893;SDS011;43710;47.460;19.034;2023-03-07T12:52:29;14.18;;;9.40;;
57893;SDS011;43710;47.460;19.034;2023-03-07T12:55:40;14.45;;;9.73;;
57893;SDS011;43710;47.460;19.034;2023-03-07T12:58:46;15.77;;;9.73;;
57893;SDS011;43710;47.460;19.034;2023-03-07T13:02:00;15.73;;;10.23;;
57893;SDS011;43710;47.460;19.034;2023-03-07T13:05:05;19.70;;;10.75;;
57893;SDS011;43710;47.460;19.034;2023-03-07T13:08:07;15.98;;;10.50;;
57893;SDS011;43710;47.460;19.034;2023-03-07T13:11:21;15.75;;;10.38;;
57893;SDS011;43710;47.460;19.034;2023-03-07T13:14:43;16.70;;;10.55;;
57893;SDS011;43710;47.460;19.034;2023-03-07T13:21:05;15.93;;;10.80;;
57893;SDS011;43710;47.460;19.034;2023-03-07T13:30:49;17.67;;;12.02;;
57893;SDS011;43710;47.460;19.034;2023-03-07T13:34:51;18.05;;;11.07;;
57893;SDS011;43710;47.460;19.034;2023-03-07T13:40:58;15.30;;;10.43;;
57893;SDS011;43710;47.460;19.034;2023-03-07T13:44:02;17.15;;;11.15;;
57893;SDS011;43710;47.460;19.034;2023-03-07T13:53:47;19.35;;;11.98;;
57893;SDS011;43710;47.460;19.034;2023-03-07T13:56:52;17.90;;;11.45;;
57893;SDS011;43710;47.460;19.034;2023-03-07T13:59:54;18.33;;;12.00;;
57893;SDS011;43710;47.460;19.034;2023-03-07T14:02:57;18.55;;;13.23;;
57893;SDS011;43710;47.460;19.034;2023-03-07T14:06:01;20.42;;;13.35;;
57893;SDS011;43710;47.460;19.034;2023-03-07T14:09:12;20.08;;;12.30;;
57893;SDS011;43710;47.460;19.034;2023-03-07T14:12:20;16.62;;;11.07;;
57893;SDS011;43710;47.460;19.034;2023-03-07T14:22:14;18.60;;;12.60;;
57893;SDS011;43710;47.460;19.034;2023-03-07T14:28:27;21.35;;;14.93;;
57893;SDS011;43710;47.460;19.034;2023-03-07T14:31:30;19.37;;;12.05;;
57893;SDS011;43710;47.460;19.034;2023-03-07T14:34:45;21.95;;;16.60;;
57893;SDS011;43710;47.460;19.034;2023-03-07T14:37:50;23.73;;;15.00;;
57893;SDS011;43710;47.460;19.034;2023-03-07T14:40:58;20.02;;;12.55;;
57893;SDS011;43710;47.460;19.034;2023-03-07T14:44:06;20.45;;;12.90;;
57893;SDS011;43710;47.460;19.034;2023-03-07T14:51:14;23.52;;;14.00;;
57893;SDS011;43710;47.460;19.034;2023-03-07T14:54:21;20.27;;;13.80;;
57893;SDS011;43710;47.460;19.034;2023-03-07T14:57:31;19.10;;;13.80;;
57893;SDS011;43710;47.460;19.034;2023-03-07T15:00:36;24.67;;;14.48;;
57893;SDS011;43710;47.460;19.034;2023-03-07T15:03:57;23.00;;;14.48;;
57893;SDS011;43710;47.460;19.034;2023-03-07T15:07:03;23.60;;;14.87;;
57893;SDS011;43710;47.460;19.034;2023-03-07T15:10:10;24.83;;;14.95;;
57893;SDS011;43710;47.460;19.034;2023-03-07T15:13:27;26.17;;;15.90;;
57893;SDS011;43710;47.460;19.034;2023-03-07T15:23:39;19.02;;;14.25;;
57893;SDS011;43710;47.460;19.034;2023-03-07T15:26:23;21.87;;;13.77;;
57893;SDS011;43710;47.460;19.034;2023-03-07T15:29:28;20.23;;;13.25;;
57893;SDS011;43710;47.460;19.034;2023-03-07T15:35:41;19.35;;;13.02;;
57893;SDS011;43710;47.460;19.034;2023-03-07T15:42:04;19.52;;;12.77;;
57893;SDS011;43710;47.460;19.034;2023-03-07T15:45:24;20.52;;;13.55;;
57893;SDS011;43710;47.460;19.034;2023-03-07T15:48:36;22.42;;;14.75;;
57893;SDS011;43710;47.460;19.034;2023-03-07T15:51:44;18.67;;;13.80;;
57893;SDS011;43710;47.460;19.034;2023-03-07T15:54:48;17.52;;;12.02;;
57893;SDS011;43710;47.460;19.034;2023-03-07T15:57:57;18.42;;;12.90;;
57893;SDS011;43710;47.460;19.034;2023-03-07T16:01:27;17.98;;;12.48;;
57893;SDS011;43710;47.460;19.034;2023-03-07T16:07:36;16.77;;;13.38;;
57893;SDS011;43710;47.460;19.034;2023-03-07T16:10:44;18.95;;;11.93;;
57893;SDS011;43710;47.460;19.034;2023-03-07T16:13:50;19.87;;;12.25;;
57893;SDS011;43710;47.460;19.034;2023-03-07T16:16:53;18.83;;;11.63;;
57893;SDS011;43710;47.460;19.034;2023-03-07T16:19:57;18.08;;;11.48;;
57893;SDS011;43710;47.460;19.034;2023-03-07T16:23:00;22.27;;;14.60;;
57893;SDS011;43710;47.460;19.034;2023-03-07T16:26:02;20.52;;;14.50;;
57893;SDS011;43710;47.460;19.034;2023-03-07T16:29:08;20.10;;;13.65;;
57893;SDS011;43710;47.460;19.034;2023-03-07T16:32:16;19.15;;;12.60;;
57893;SDS011;43710;47.460;19.034;2023-03-07T16:35:22;21.10;;;13.10;;
57893;SDS011;43710;47.460;19.034;2023-03-07T16:38:26;17.73;;;11.73;;
57893;SDS011;43710;47.460;19.034;2023-03-07T16:41:28;20.10;;;11.77;;
